Time;durP1;ratioP1;P1;durP2;ratioP2;P2;SDS_P1;SDS_P2;PMS_P1;PMS_P2;Temp;Humidity;BMP_temperature;BMP_pressure;BME280_temperature;BME280_humidity;BME280_pressure;Samples;Min_cycle;Max_cycle;Signal;HPM_P1;HPM_P2
2020/12/22 00:01:09;;;;;;;;;;;4.60;99.90;;;;;;4890587;28;20003;-85
2020/12/22 00:03:32;;;;;;;;;;;4.70;99.90;;;;;;4892765;28;19921;-86
2020/12/22 00:05:54;;;;;;;;;;;4.60;99.90;;;;;;4893899;28;19943;-86
2020/12/22 00:08:16;;;;;;;;;;;4.50;99.90;;;;;;4891549;28;19950;-85
2020/12/22 00:10:39;;;;;;;;;;;4.40;99.90;;;;;;4892540;28;20375;-85
2020/12/22 00:13:03;;;;;;;;;;;4.50;99.90;;;;;;4892775;28;19925;-85
2020/12/22 00:15:25;;;;;;;;;;;4.50;99.90;;;;;;4909648;28;20023;-87
2020/12/22 00:17:50;;;;;;;;;;;4.50;99.90;;;;;;4904435;28;19921;-87
2020/12/22 00:20:13;;;;;;;;;;;4.50;99.90;;;;;;4910873;28;20051;-87
2020/12/22 00:22:35;;;;;;;;;;;4.40;99.90;;;;;;4902199;28;19929;-85
2020/12/22 00:24:59;;;;;;;;;;;4.40;99.90;;;;;;4892199;28;19927;-86
2020/12/22 00:27:21;;;;;;;;;;;4.40;99.90;;;;;;4894036;28;20017;-88
2020/12/22 00:29:45;;;;;;;;;;;4.50;99.90;;;;;;4891047;28;20009;-86
2020/12/22 00:32:08;;;;;;;;;;;4.40;99.90;;;;;;4893001;28;19983;-86
2020/12/22 00:34:31;;;;;;;;;;;4.50;99.90;;;;;;4890122;28;19975;-87
2020/12/22 00:36:53;;;;;;;;;;;4.40;99.90;;;;;;4890727;28;19924;-88
2020/12/22 00:39:15;;;;;;;;;;;4.40;99.90;;;;;;4893223;28;20024;-86
2020/12/22 00:41:38;;;;;;;;;;;4.40;99.90;;;;;;4884431;28;20015;-87
2020/12/22 00:44:00;;;;;;;;;;;4.40;99.90;;;;;;4883566;28;19920;-87
2020/12/22 00:46:23;;;;;;;;;;;4.40;99.90;;;;;;4893678;28;19920;-86
2020/12/22 00:48:46;;;;;;;;;;;4.40;99.90;;;;;;4883358;28;20023;-86
2020/12/22 00:51:13;;;;;;;;;;;4.40;99.90;;;;;;4883634;28;19941;-86
2020/12/22 00:53:35;;;;;;;;;;;4.40;99.90;;;;;;4895462;28;20832;-87
2020/12/22 00:55:59;;;;;;;;;;;4.40;99.90;;;;;;4893204;28;19935;-86
2020/12/22 00:58:21;;;;;;;;;;;4.50;99.90;;;;;;4913101;28;19965;-87
2020/12/22 01:00:44;;;;;;;;;;;4.40;99.90;;;;;;4893240;28;20070;-85
2020/12/22 01:03:07;;;;;;;;;;;4.40;99.90;;;;;;4896518;28;19968;-86
2020/12/22 01:05:30;;;;;;;;;;;4.50;99.90;;;;;;4876208;28;19925;-86
2020/12/22 01:07:53;;;;;;;;;;;4.50;99.90;;;;;;4892667;28;19960;-86
2020/12/22 01:10:15;;;;;;;;;;;4.50;99.90;;;;;;4891070;28;19947;-86
2020/12/22 01:12:38;;;;;;;;;;;4.40;99.90;;;;;;4895209;28;20011;-86
2020/12/22 01:15:00;;;;;;;;;;;4.40;99.90;;;;;;4892996;28;19924;-87
2020/12/22 01:17:23;;;;;;;;;;;4.40;99.90;;;;;;4871022;28;20313;-86
2020/12/22 01:19:46;;;;;;;;;;;4.50;99.90;;;;;;4892299;28;19920;-86
2020/12/22 01:22:09;;;;;;;;;;;4.50;99.90;;;;;;4883361;28;20019;-85
2020/12/22 01:24:31;;;;;;;;;;;4.50;99.90;;;;;;4890495;28;19921;-88
2020/12/22 01:26:53;;;;;;;;;;;4.40;99.90;;;;;;4895247;28;20381;-85
2020/12/22 01:29:16;;;;;;;;;;;4.50;99.90;;;;;;4882549;28;19929;-86
2020/12/22 01:31:38;;;;;;;;;;;4.50;99.90;;;;;;4885640;28;20026;-87
2020/12/22 01:34:01;;;;;;;;;;;4.50;99.90;;;;;;4891409;28;19929;-85
2020/12/22 01:36:25;;;;;;;;;;;4.50;99.90;;;;;;4894124;28;19921;-87
2020/12/22 01:38:48;;;;;;;;;;;4.50;99.90;;;;;;4894251;28;20023;-86
2020/12/22 01:41:11;;;;;;;;;;;4.60;99.90;;;;;;4892972;28;20300;-85
2020/12/22 01:43:34;;;;;;;;;;;4.50;99.90;;;;;;4892452;28;19920;-86
2020/12/22 01:45:56;;;;;;;;;;;4.50;99.90;;;;;;4892964;28;20321;-86
2020/12/22 01:48:19;;;;;;;;;;;4.50;99.90;;;;;;4892939;28;19920;-86
2020/12/22 01:50:41;;;;;;;;;;;4.50;99.90;;;;;;4893784;28;19952;-86
2020/12/22 01:53:05;;;;;;;;;;;4.60;99.90;;;;;;4893572;28;19924;-86
2020/12/22 01:55:27;;;;;;;;;;;4.50;99.90;;;;;;4891005;28;20023;-86
2020/12/22 01:57:52;;;;;;;;;;;4.50;99.90;;;;;;4892544;28;20066;-85
2020/12/22 02:00:14;;;;;;;;;;;4.60;99.90;;;;;;4893318;28;19928;-85
2020/12/22 02:02:37;;;;;;;;;;;4.60;99.90;;;;;;4892713;28;20953;-85
2020/12/22 02:05:01;;;;;;;;;;;4.50;99.90;;;;;;4893250;28;19928;-86
2020/12/22 02:07:23;;;;;;;;;;;4.50;99.90;;;;;;4884141;28;19921;-85
2020/12/22 02:09:49;;;;;;;;;;;4.60;99.90;;;;;;4891081;28;19990;-85
2020/12/22 02:12:12;;;;;;;;;;;4.60;99.90;;;;;;4894216;28;20011;-85
2020/12/22 02:14:35;;;;;;;;;;;4.70;99.90;;;;;;4882399;28;20444;-85
2020/12/22 02:16:57;;;;;;;;;;;4.70;99.90;;;;;;4892790;28;20360;-85
2020/12/22 02:19:20;;;;;;;;;;;4.60;99.90;;;;;;4894570;28;19920;-85
2020/12/22 02:21:43;;;;;;;;;;;4.70;99.90;;;;;;4892453;28;19974;-86
2020/12/22 02:24:06;;;;;;;;;;;4.70;99.90;;;;;;4894616;28;19977;-85
2020/12/22 02:26:28;;;;;;;;;;;4.70;99.90;;;;;;4893934;28;20402;-85
2020/12/22 02:28:51;;;;;;;;;;;4.60;99.90;;;;;;4892172;28;19921;-86
2020/12/22 02:31:14;;;;;;;;;;;4.60;99.90;;;;;;4891740;28;19929;-85
2020/12/22 02:33:36;;;;;;;;;;;4.70;99.90;;;;;;4891920;28;20343;-85
2020/12/22 02:35:59;;;;;;;;;;;4.70;99.90;;;;;;4895145;28;19975;-87
2020/12/22 02:38:23;;;;;;;;;;;4.70;99.90;;;;;;4894154;28;20337;-87
2020/12/22 02:40:45;;;;;;;;;;;4.70;99.90;;;;;;4893393;28;19932;-85
2020/12/22 02:43:09;;;;;;;;;;;4.60;99.90;;;;;;4891788;28;20371;-87
2020/12/22 02:45:32;;;;;;;;;;;4.70;99.90;;;;;;4892970;28;21007;-87
2020/12/22 02:47:56;;;;;;;;;;;4.70;99.90;;;;;;4894035;28;20023;-87
2020/12/22 02:50:19;;;;;;;;;;;4.80;99.90;;;;;;4893580;28;20497;-86
2020/12/22 02:52:41;;;;;;;;;;;4.70;99.90;;;;;;4891927;28;19927;-88
2020/12/22 02:55:05;;;;;;;;;;;4.70;99.90;;;;;;4892950;28;19929;-86
2020/12/22 02:57:27;;;;;;;;;;;4.70;99.90;;;;;;4890994;28;20019;-88
2020/12/22 02:59:50;;;;;;;;;;;4.70;99.90;;;;;;4894252;28;20026;-87
2020/12/22 03:02:13;;;;;;;;;;;4.70;99.90;;;;;;4885128;28;20025;-87
2020/12/22 03:04:35;;;;;;;;;;;4.80;99.90;;;;;;4906888;28;19974;-85
2020/12/22 03:06:58;;;;;;;;;;;4.80;99.90;;;;;;4908347;28;19940;-88
2020/12/22 03:09:20;;;;;;;;;;;4.80;99.90;;;;;;4903074;28;19935;-87
2020/12/22 03:11:44;;;;;;;;;;;4.80;99.90;;;;;;4910036;28;19920;-87
2020/12/22 03:14:06;;;;;;;;;;;4.80;99.90;;;;;;4909173;28;19920;-89
2020/12/22 03:16:30;;;;;;;;;;;4.90;99.90;;;;;;4898110;28;19934;-87
2020/12/22 03:18:53;;;;;;;;;;;4.90;99.90;;;;;;4900302;28;19920;-86
2020/12/22 03:21:16;;;;;;;;;;;4.90;99.90;;;;;;4884246;28;19921;-88
2020/12/22 03:23:38;;;;;;;;;;;4.80;99.90;;;;;;4893854;28;19928;-89
2020/12/22 03:26:01;;;;;;;;;;;4.70;99.90;;;;;;4892939;28;20320;-85
2020/12/22 03:28:24;;;;;;;;;;;4.80;99.90;;;;;;4891069;28;20019;-86
2020/12/22 03:30:46;;;;;;;;;;;4.70;99.90;;;;;;4891471;28;19999;-87
2020/12/22 03:33:09;;;;;;;;;;;4.30;99.90;;;;;;4877430;28;20039;-87
2020/12/22 03:35:32;;;;;;;;;;;4.80;99.90;;;;;;4908988;28;19988;-86
2020/12/22 03:37:56;;;;;;;;;;;4.80;99.90;;;;;;4908844;28;20333;-88
2020/12/22 03:40:20;;;;;;;;;;;4.80;99.90;;;;;;4910653;28;19962;-89
2020/12/22 03:42:42;;;;;;;;;;;4.80;99.90;;;;;;4894769;28;19927;-85
2020/12/22 03:45:07;;;;;;;;;;;4.80;99.90;;;;;;4891070;28;19920;-86
2020/12/22 03:47:29;;;;;;;;;;;4.80;99.90;;;;;;4883630;28;20036;-87
2020/12/22 03:49:52;;;;;;;;;;;4.90;99.90;;;;;;4909077;28;19981;-87
2020/12/22 03:52:14;;;;;;;;;;;4.90;99.90;;;;;;4891586;28;20399;-86
2020/12/22 03:54:39;;;;;;;;;;;4.80;99.90;;;;;;4863307;28;19971;-86
2020/12/22 03:57:01;;;;;;;;;;;4.80;99.90;;;;;;4890707;28;19927;-87
2020/12/22 03:59:24;;;;;;;;;;;4.90;99.90;;;;;;4890974;28;23453;-85
2020/12/22 04:01:49;;;;;;;;;;;4.90;99.90;;;;;;4892580;28;19927;-84
2020/12/22 04:04:12;;;;;;;;;;;4.90;99.90;;;;;;4891419;28;19920;-86
2020/12/22 04:06:35;;;;;;;;;;;4.90;99.90;;;;;;4890956;28;20003;-86
2020/12/22 04:08:57;;;;;;;;;;;4.90;99.90;;;;;;4894039;28;19921;-85
2020/12/22 04:11:20;;;;;;;;;;;4.90;99.90;;;;;;4884291;28;19986;-87
2020/12/22 04:13:42;;;;;;;;;;;4.90;99.90;;;;;;4888468;28;19924;-86
2020/12/22 04:16:05;;;;;;;;;;;4.90;99.90;;;;;;4891486;28;20298;-85
2020/12/22 04:18:28;;;;;;;;;;;4.90;99.90;;;;;;4878703;28;19921;-85
2020/12/22 04:20:51;;;;;;;;;;;4.80;99.90;;;;;;4893293;28;20283;-86
2020/12/22 04:23:13;;;;;;;;;;;4.90;99.90;;;;;;4895470;28;22353;-87
2020/12/22 04:25:36;;;;;;;;;;;4.90;99.90;;;;;;4895814;28;19971;-87
2020/12/22 04:28:00;;;;;;;;;;;4.90;99.90;;;;;;4913093;28;20339;-86
2020/12/22 04:30:22;;;;;;;;;;;5.00;99.90;;;;;;4912935;28;20012;-86
2020/12/22 04:32:45;;;;;;;;;;;5.00;99.90;;;;;;4913264;28;19928;-86
2020/12/22 04:35:09;;;;;;;;;;;5.00;99.90;;;;;;4900114;28;19992;-86
2020/12/22 04:37:32;;;;;;;;;;;5.00;99.90;;;;;;4894228;28;19921;-87
2020/12/22 04:39:54;;;;;;;;;;;5.00;99.90;;;;;;4902731;28;19964;-87
2020/12/22 04:42:17;;;;;;;;;;;5.00;99.90;;;;;;4912046;28;20310;-87
2020/12/22 04:44:40;;;;;;;;;;;5.00;99.90;;;;;;4900511;28;19920;-87
2020/12/22 04:47:04;;;;;;;;;;;5.00;99.90;;;;;;4916855;28;20315;-88
2020/12/22 04:49:31;;;;;;;;;;;5.00;99.90;;;;;;4913768;28;19928;-89
2020/12/22 04:51:54;;;;;;;;;;;5.00;99.90;;;;;;4912901;28;19921;-88
2020/12/22 04:54:19;;;;;;;;;;;5.00;99.90;;;;;;4912769;28;20036;-87
2020/12/22 04:56:42;;;;;;;;;;;5.10;99.90;;;;;;4902616;28;19951;-87
2020/12/22 04:59:05;;;;;;;;;;;5.20;99.90;;;;;;4896268;28;19976;-87
2020/12/22 05:01:27;;;;;;;;;;;5.10;99.90;;;;;;4883235;28;20097;-89
2020/12/22 05:03:50;;;;;;;;;;;5.20;99.90;;;;;;4892618;28;20163;-87
2020/12/22 05:06:13;;;;;;;;;;;5.20;99.90;;;;;;4881952;28;19968;-85
2020/12/22 05:08:37;;;;;;;;;;;5.20;99.90;;;;;;4897386;28;19921;-89
2020/12/22 05:11:00;;;;;;;;;;;5.30;99.90;;;;;;4882942;28;20420;-87
2020/12/22 05:13:23;;;;;;;;;;;5.20;99.90;;;;;;4892965;28;19925;-87
2020/12/22 05:15:48;;;;;;;;;;;5.30;99.90;;;;;;4892502;28;19967;-88
2020/12/22 05:18:11;;;;;;;;;;;5.30;99.90;;;;;;4898000;28;19920;-88
2020/12/22 05:20:35;;;;;;;;;;;5.30;99.90;;;;;;4912183;28;19963;-87
2020/12/22 05:22:58;;;;;;;;;;;5.30;99.90;;;;;;4912770;28;19928;-87
2020/12/22 05:25:22;;;;;;;;;;;5.30;99.90;;;;;;4891238;28;19982;-89
2020/12/22 05:27:47;;;;;;;;;;;5.30;99.90;;;;;;4884693;28;19924;-86
2020/12/22 05:30:10;;;;;;;;;;;5.30;99.90;;;;;;4891628;28;20412;-89
2020/12/22 05:32:32;;;;;;;;;;;5.30;99.90;;;;;;4892950;28;20423;-87
2020/12/22 05:34:55;;;;;;;;;;;5.40;99.90;;;;;;4886144;28;19927;-87
2020/12/22 05:37:18;;;;;;;;;;;5.30;99.90;;;;;;4892918;28;20019;-86
2020/12/22 05:39:40;;;;;;;;;;;5.40;99.90;;;;;;4890089;28;19928;-87
2020/12/22 05:42:11;;;;;;;;;;;5.40;99.90;;;;;;4873935;28;19928;-87
2020/12/22 05:44:34;;;;;;;;;;;5.50;99.90;;;;;;4893958;28;20015;-88
2020/12/22 05:46:59;;;;;;;;;;;5.40;99.90;;;;;;4894318;28;19952;-85
2020/12/22 05:49:22;;;;;;;;;;;5.40;99.90;;;;;;4896359;28;19929;-87
2020/12/22 05:51:44;;;;;;;;;;;5.40;99.90;;;;;;4893310;28;21367;-87
2020/12/22 05:54:08;;;;;;;;;;;5.50;99.90;;;;;;4893417;28;20351;-88
2020/12/22 05:56:31;;;;;;;;;;;5.60;99.90;;;;;;4893794;28;19928;-88
2020/12/22 05:58:55;;;;;;;;;;;5.50;99.90;;;;;;4880407;28;20058;-88
2020/12/22 06:01:28;;;;;;;;;;;5.50;99.90;;;;;;4908627;28;19921;-87
2020/12/22 06:03:51;;;;;;;;;;;5.50;99.90;;;;;;4900705;28;20049;-88
2020/12/22 06:06:13;;;;;;;;;;;5.60;99.90;;;;;;4884822;28;19960;-87
2020/12/22 06:08:37;;;;;;;;;;;5.70;99.90;;;;;;4896598;28;19930;-87
2020/12/22 06:11:01;;;;;;;;;;;5.60;99.90;;;;;;4895008;28;20017;-87
2020/12/22 06:13:24;;;;;;;;;;;5.60;99.90;;;;;;4893914;28;19921;-87
2020/12/22 06:15:48;;;;;;;;;;;5.60;99.90;;;;;;4890393;28;20385;-87
2020/12/22 06:18:11;;;;;;;;;;;5.70;99.90;;;;;;4900641;28;20390;-87
2020/12/22 06:20:34;;;;;;;;;;;5.70;99.90;;;;;;4904123;28;22590;-88
2020/12/22 06:23:00;;;;;;;;;;;5.80;99.90;;;;;;4894782;28;19975;-88
2020/12/22 06:25:23;;;;;;;;;;;5.70;99.90;;;;;;4893058;28;19921;-87
2020/12/22 06:27:45;;;;;;;;;;;5.90;99.90;;;;;;4891063;28;19967;-88
2020/12/22 06:30:08;;;;;;;;;;;5.80;99.90;;;;;;4892146;28;19928;-87
2020/12/22 06:32:31;;;;;;;;;;;5.90;99.90;;;;;;4894744;28;19965;-87
2020/12/22 06:34:55;;;;;;;;;;;5.80;99.90;;;;;;4875273;28;20354;-88
2020/12/22 06:37:20;;;;;;;;;;;5.90;99.90;;;;;;4903032;28;19936;-87
2020/12/22 06:39:44;;;;;;;;;;;5.90;99.90;;;;;;4901124;28;19924;-87
2020/12/22 06:42:07;;;;;;;;;;;5.90;99.90;;;;;;4912948;28;19951;-88
2020/12/22 06:44:29;;;;;;;;;;;5.90;99.90;;;;;;4912828;28;19964;-87
2020/12/22 06:46:53;;;;;;;;;;;6.00;99.90;;;;;;4912039;28;19928;-89
2020/12/22 06:49:16;;;;;;;;;;;6.00;99.90;;;;;;4909524;28;19993;-89
2020/12/22 06:51:41;;;;;;;;;;;6.10;99.90;;;;;;4910311;28;19927;-87
2020/12/22 06:54:18;;;;;;;;;;;6.20;99.90;;;;;;4900964;28;19935;-88
2020/12/22 06:56:42;;;;;;;;;;;6.10;99.90;;;;;;4908430;28;20011;-87
2020/12/22 06:59:04;;;;;;;;;;;6.10;99.90;;;;;;4900635;28;19971;-88
2020/12/22 07:01:35;;;;;;;;;;;6.10;99.90;;;;;;4910956;28;19959;-87
2020/12/22 07:04:14;;;;;;;;;;;6.10;99.90;;;;;;4911143;28;20022;-89
2020/12/22 07:06:45;;;;;;;;;;;6.10;99.90;;;;;;4910258;28;19981;-88
2020/12/22 07:09:11;;;;;;;;;;;6.20;99.90;;;;;;4909573;28;20038;-88
2020/12/22 07:11:37;;;;;;;;;;;6.20;99.90;;;;;;4891630;28;20336;-89
2020/12/22 07:13:59;;;;;;;;;;;6.20;99.90;;;;;;4891474;28;20408;-89
2020/12/22 07:16:23;;;;;;;;;;;6.30;99.90;;;;;;4890658;28;20349;-88
2020/12/22 07:18:46;;;;;;;;;;;6.30;99.90;;;;;;4895863;28;20387;-88
2020/12/22 07:21:11;;;;;;;;;;;6.30;99.90;;;;;;4881899;28;19921;-87
2020/12/22 07:23:35;;;;;;;;;;;6.30;99.90;;;;;;4908931;28;20371;-89
2020/12/22 07:25:59;;;;;;;;;;;6.20;99.90;;;;;;4891429;28;19951;-89
2020/12/22 07:28:22;;;;;;;;;;;6.20;99.90;;;;;;4892173;28;19929;-88
2020/12/22 07:30:44;;;;;;;;;;;6.30;99.90;;;;;;4892520;28;19942;-88
2020/12/22 07:33:07;;;;;;;;;;;6.40;99.90;;;;;;4891002;28;20011;-87
2020/12/22 07:35:29;;;;;;;;;;;6.30;99.90;;;;;;4893301;28;19971;-88
2020/12/22 07:37:52;;;;;;;;;;;6.50;99.90;;;;;;4890097;28;20015;-88
2020/12/22 07:40:15;;;;;;;;;;;6.40;99.90;;;;;;4890022;28;20353;-86
2020/12/22 07:42:38;;;;;;;;;;;6.50;99.90;;;;;;4883742;28;19985;-87
2020/12/22 07:45:05;;;;;;;;;;;6.50;99.90;;;;;;4889729;28;20003;-89
2020/12/22 07:47:27;;;;;;;;;;;6.50;99.90;;;;;;4909664;28;19987;-88
2020/12/22 07:49:49;;;;;;;;;;;6.50;99.90;;;;;;4910339;28;19996;-89
2020/12/22 07:52:16;;;;;;;;;;;6.70;99.90;;;;;;4910045;28;19967;-89
2020/12/22 07:54:38;;;;;;;;;;;6.70;99.90;;;;;;4904592;28;19986;-87
2020/12/22 07:57:02;;;;;;;;;;;6.60;99.90;;;;;;4913998;28;20015;-88
2020/12/22 07:59:26;;;;;;;;;;;6.60;99.90;;;;;;4881407;28;19968;-89
2020/12/22 08:01:50;;;;;;;;;;;6.70;99.90;;;;;;4910415;28;19920;-89
2020/12/22 08:04:15;;;;;;;;;;;6.70;99.90;;;;;;4910861;28;19927;-89
2020/12/22 08:06:37;;;;;;;;;;;6.70;99.90;;;;;;4913810;28;20594;-89
2020/12/22 08:09:00;;;;;;;;;;;6.70;99.90;;;;;;4913664;28;20317;-89
2020/12/22 08:11:22;;;;;;;;;;;6.70;99.90;;;;;;4913033;28;20366;-89
2020/12/22 08:13:46;;;;;;;;;;;6.80;99.90;;;;;;4903351;28;19964;-88
2020/12/22 08:16:10;;;;;;;;;;;6.80;99.90;;;;;;4912899;28;19932;-88
2020/12/22 08:18:34;;;;;;;;;;;6.90;99.90;;;;;;4913088;28;19925;-88
2020/12/22 08:20:57;;;;;;;;;;;6.80;99.90;;;;;;4897676;28;20281;-89
2020/12/22 08:23:20;;;;;;;;;;;6.90;99.90;;;;;;4903544;28;20019;-87
2020/12/22 08:25:44;;;;;;;;;;;6.90;99.90;;;;;;4895193;28;19974;-88
2020/12/22 08:28:07;;;;;;;;;;;6.90;99.90;;;;;;4901642;28;19981;-88
2020/12/22 08:30:32;;;;;;;;;;;7.00;99.90;;;;;;4902010;28;19921;-87
2020/12/22 08:32:57;;;;;;;;;;;7.10;99.90;;;;;;4897207;28;20386;-89
2020/12/22 08:35:31;;;;;;;;;;;;;;;;;;;;;
2020/12/22 08:37:53;;;;;;;;;;;7.00;99.90;;;;;;4900362;28;20352;-89
2020/12/22 08:40:26;;;;;;;;;;;7.00;99.90;;;;;;4898511;28;19963;-88
2020/12/22 08:42:48;;;;;;;;;;;7.20;99.90;;;;;;4895513;28;19989;-88
2020/12/22 08:45:12;;;;;;;;;;;7.10;99.90;;;;;;4893842;28;19951;-88
2020/12/22 08:47:35;;;;;;;;;;;7.10;99.90;;;;;;4893854;28;20011;-89
2020/12/22 08:50:08;;;;;;;;;;;7.30;99.90;;;;;;4894172;28;19951;-89
2020/12/22 08:52:32;;;;;;;;;;;7.20;99.90;;;;;;4909831;28;19974;-90
2020/12/22 08:55:01;;;;;;;;;;;7.10;99.90;;;;;;4896324;28;19927;-89
2020/12/22 08:57:23;;;;;;;;;;;7.20;99.90;;;;;;4911696;28;19928;-89
2020/12/22 08:59:46;;;;;;;;;;;7.20;99.90;;;;;;4893477;28;19927;-90
2020/12/22 09:02:23;;;;;;;;;;;7.20;99.90;;;;;;4833032;28;19921;-89
2020/12/22 09:05:03;;;;;;;;;;;7.30;99.90;;;;;;4853551;28;19928;-88
2020/12/22 09:07:42;;;;;;;;;;;7.20;99.90;;;;;;4849434;28;19932;-87
2020/12/22 09:10:06;;;;;;;;;;;7.30;99.90;;;;;;4836985;28;19929;-88
2020/12/22 09:12:43;;;;;;;;;;;7.30;99.90;;;;;;4849196;28;19921;-89
2020/12/22 09:15:11;;;;;;;;;;;7.40;99.90;;;;;;4879846;28;19924;-89
2020/12/22 09:17:36;;;;;;;;;;;7.40;99.90;;;;;;4844484;28;19928;-88
2020/12/22 09:20:01;;;;;;;;;;;7.40;99.90;;;;;;4859462;28;19929;-89
2020/12/22 09:22:26;;;;;;;;;;;7.50;99.90;;;;;;4839970;28;19928;-87
2020/12/22 09:25:00;;;;;;;;;;;7.60;99.90;;;;;;4845050;28;19950;-87
2020/12/22 09:27:28;;;;;;;;;;;7.60;99.90;;;;;;4868650;28;20309;-89
2020/12/22 09:30:09;;;;;;;;;;;7.60;99.90;;;;;;4851387;28;20367;-88
2020/12/22 09:35:50;;;;;;;;;;;7.70;99.90;;;;;;4839582;28;20013;-87
2020/12/22 09:38:15;;;;;;;;;;;7.80;99.90;;;;;;4845135;28;20478;-88
2020/12/22 09:40:40;;;;;;;;;;;7.80;99.90;;;;;;4833704;28;19932;-88
2020/12/22 09:43:20;;;;;;;;;;;7.80;99.90;;;;;;4858108;28;19929;-88
2020/12/22 09:46:07;;;;;;;;;;;8.00;99.90;;;;;;4836905;28;19930;-89
2020/12/22 09:48:30;;;;;;;;;;;8.10;99.90;;;;;;4831049;28;20291;-89
2020/12/22 09:51:33;;;;;;;;;;;8.20;99.90;;;;;;4840600;28;20022;-89
2020/12/22 09:54:06;;;;;;;;;;;8.20;99.90;;;;;;4843061;28;19935;-90
2020/12/22 10:11:31;;;;;;;;;;;9.10;99.90;;;;;;4845306;28;20383;-86
2020/12/22 10:17:22;;;;;;;;;;;9.30;99.90;;;;;;4842353;28;19947;-86
2020/12/22 10:34:48;;;;;;;;;;;10.10;99.90;;;;;;4845099;28;19921;-91
2020/12/22 10:37:18;;;;;;;;;;;10.20;99.90;;;;;;4845764;28;19929;-88
2020/12/22 10:39:49;;;;;;;;;;;10.20;99.90;;;;;;4851432;28;20252;-86
2020/12/22 10:42:13;;;;;;;;;;;10.20;99.90;;;;;;4857035;28;19978;-87
2020/12/22 10:47:26;;;;;;;;;;;10.30;99.90;;;;;;4853274;28;19921;-87
2020/12/22 10:49:49;;;;;;;;;;;10.40;99.90;;;;;;4896014;28;19956;-87
2020/12/22 10:52:12;;;;;;;;;;;10.40;99.90;;;;;;4895811;28;20000;-86
2020/12/22 10:54:36;;;;;;;;;;;10.50;99.90;;;;;;4891478;28;19928;-87
2020/12/22 10:56:59;;;;;;;;;;;10.50;99.90;;;;;;4880802;28;19921;-87
2020/12/22 10:59:22;;;;;;;;;;;10.60;99.90;;;;;;4891297;28;20063;-86
2020/12/22 11:01:46;;;;;;;;;;;10.60;99.90;;;;;;4894746;28;19927;-87
2020/12/22 11:04:09;;;;;;;;;;;10.60;99.90;;;;;;4893356;28;20413;-87
2020/12/22 11:06:40;;;;;;;;;;;10.60;99.90;;;;;;4892305;28;20017;-86
2020/12/22 11:09:03;;;;;;;;;;;10.60;99.90;;;;;;4886565;28;19974;-85
2020/12/22 11:11:25;;;;;;;;;;;10.60;99.90;;;;;;4894078;28;19983;-86
2020/12/22 11:13:48;;;;;;;;;;;10.60;99.90;;;;;;4894071;28;20011;-86
2020/12/22 11:16:11;;;;;;;;;;;10.60;99.90;;;;;;4892390;28;19956;-86
2020/12/22 11:18:34;;;;;;;;;;;10.60;99.90;;;;;;4891080;28;19921;-86
2020/12/22 11:20:56;;;;;;;;;;;10.60;99.90;;;;;;4891458;28;19928;-86
2020/12/22 11:23:19;;;;;;;;;;;10.70;99.90;;;;;;4891149;28;19974;-86
2020/12/22 11:25:42;;;;;;;;;;;10.70;99.90;;;;;;4892418;28;19924;-88
2020/12/22 11:28:04;;;;;;;;;;;10.80;99.90;;;;;;4882025;28;19920;-87
2020/12/22 11:30:27;;;;;;;;;;;10.80;99.90;;;;;;4890810;28;19950;-85
2020/12/22 11:32:49;;;;;;;;;;;10.90;99.90;;;;;;4890824;28;20357;-87
2020/12/22 11:35:14;;;;;;;;;;;11.00;99.90;;;;;;4890369;28;20347;-86
2020/12/22 11:37:36;;;;;;;;;;;11.20;99.90;;;;;;4893253;28;20324;-85
2020/12/22 11:40:01;;;;;;;;;;;11.20;99.90;;;;;;4890192;28;23881;-86
2020/12/22 11:42:24;;;;;;;;;;;11.30;99.90;;;;;;4889095;28;19929;-86
2020/12/22 11:44:46;;;;;;;;;;;11.50;99.90;;;;;;4889318;28;19931;-86
2020/12/22 11:47:09;;;;;;;;;;;11.60;99.90;;;;;;4889020;28;19940;-89
2020/12/22 11:49:33;;;;;;;;;;;11.60;99.90;;;;;;4904311;28;19968;-85
2020/12/22 11:51:56;;;;;;;;;;;11.70;99.90;;;;;;4909917;28;19932;-86
2020/12/22 11:54:18;;;;;;;;;;;11.60;99.90;;;;;;4909527;28;19939;-86
2020/12/22 11:56:42;;;;;;;;;;;10.60;99.90;;;;;;4898822;28;20065;-87
2020/12/22 11:59:04;;;;;;;;;;;11.60;99.90;;;;;;4905053;28;20032;-88
2020/12/22 12:01:27;;;;;;;;;;;11.70;99.90;;;;;;4913260;28;20416;-87
2020/12/22 12:03:51;;;;;;;;;;;11.80;99.90;;;;;;4897777;28;19936;-86
2020/12/22 12:06:13;;;;;;;;;;;11.90;99.90;;;;;;4870457;28;20024;-86
2020/12/22 12:08:36;;;;;;;;;;;11.90;99.90;;;;;;4889234;28;19960;-86
2020/12/22 12:10:58;;;;;;;;;;;12.00;99.90;;;;;;4904381;28;23383;-86
2020/12/22 12:13:21;;;;;;;;;;;12.10;99.90;;;;;;4910710;28;19964;-85
2020/12/22 12:15:44;;;;;;;;;;;12.10;99.90;;;;;;4907154;28;19932;-85
2020/12/22 12:18:06;;;;;;;;;;;12.10;99.90;;;;;;4905486;28;20015;-84
2020/12/22 12:20:29;;;;;;;;;;;12.10;99.90;;;;;;4917795;28;20002;-85
2020/12/22 12:22:51;;;;;;;;;;;12.10;99.90;;;;;;4912659;28;19924;-86
2020/12/22 12:25:14;;;;;;;;;;;12.00;99.90;;;;;;4906056;28;19930;-84
2020/12/22 12:27:36;;;;;;;;;;;12.00;99.90;;;;;;4910103;28;19925;-84
2020/12/22 12:30:00;;;;;;;;;;;11.90;99.90;;;;;;4910528;28;19930;-85
2020/12/22 12:32:26;;;;;;;;;;;11.90;99.90;;;;;;4909592;28;20381;-86
2020/12/22 12:34:48;;;;;;;;;;;11.80;99.90;;;;;;4910156;28;20291;-85
2020/12/22 12:37:11;;;;;;;;;;;11.80;99.90;;;;;;4909573;28;19939;-85
2020/12/22 12:39:34;;;;;;;;;;;11.80;99.90;;;;;;4908833;28;19964;-84
2020/12/22 12:41:56;;;;;;;;;;;11.90;99.90;;;;;;4913182;28;20023;-86
2020/12/22 12:44:19;;;;;;;;;;;11.90;99.90;;;;;;4913161;28;20023;-85
2020/12/22 12:46:42;;;;;;;;;;;11.90;99.90;;;;;;4913139;28;19932;-85
2020/12/22 12:49:05;;;;;;;;;;;12.00;99.90;;;;;;4912803;28;20325;-84
2020/12/22 12:51:30;;;;;;;;;;;12.00;99.90;;;;;;4913401;28;19977;-83
2020/12/22 12:53:52;;;;;;;;;;;11.90;99.90;;;;;;4913127;28;19928;-85
2020/12/22 12:56:15;;;;;;;;;;;11.90;99.90;;;;;;4910526;28;21010;-84
2020/12/22 12:58:37;;;;;;;;;;;11.90;99.90;;;;;;4913288;28;20011;-85
2020/12/22 13:01:00;;;;;;;;;;;11.90;99.90;;;;;;4904098;28;20418;-84
2020/12/22 13:03:23;;;;;;;;;;;11.80;99.90;;;;;;4914880;28;20294;-87
2020/12/22 13:05:46;;;;;;;;;;;11.70;99.90;;;;;;4912142;28;20888;-85
2020/12/22 13:08:08;;;;;;;;;;;11.70;99.90;;;;;;4913528;28;19931;-88
2020/12/22 13:10:30;;;;;;;;;;;11.50;99.90;;;;;;4911442;28;19925;-85
2020/12/22 13:12:53;;;;;;;;;;;11.50;99.90;;;;;;4913065;28;20014;-85
2020/12/22 13:15:15;;;;;;;;;;;11.50;99.90;;;;;;4910603;28;19931;-82
2020/12/22 13:17:38;;;;;;;;;;;11.40;99.90;;;;;;4913089;28;20034;-84
2020/12/22 13:20:01;;;;;;;;;;;11.40;99.90;;;;;;4912621;28;19938;-85
2020/12/22 13:22:23;;;;;;;;;;;11.30;99.90;;;;;;4913317;28;20027;-84
2020/12/22 13:24:46;;;;;;;;;;;11.30;99.90;;;;;;4911227;28;19924;-83
2020/12/22 13:27:09;;;;;;;;;;;11.30;99.90;;;;;;4912747;28;19939;-85
2020/12/22 13:29:31;;;;;;;;;;;11.20;99.90;;;;;;4912352;28;19924;-84
2020/12/22 13:31:53;;;;;;;;;;;11.20;99.90;;;;;;4911853;28;19985;-86
2020/12/22 13:34:16;;;;;;;;;;;11.00;99.90;;;;;;4912668;28;20281;-85
2020/12/22 13:36:39;;;;;;;;;;;11.00;99.90;;;;;;4912577;28;19959;-84
2020/12/22 13:39:02;;;;;;;;;;;10.90;99.90;;;;;;4911979;28;20019;-85
2020/12/22 13:41:24;;;;;;;;;;;10.90;99.90;;;;;;4912854;28;20350;-84
2020/12/22 13:43:46;;;;;;;;;;;10.70;99.90;;;;;;4911026;28;19932;-83
2020/12/22 13:46:09;;;;;;;;;;;10.60;99.90;;;;;;4902713;28;19978;-85
2020/12/22 13:48:32;;;;;;;;;;;10.40;99.90;;;;;;4912120;28;19932;-83
2020/12/22 13:50:54;;;;;;;;;;;10.30;99.90;;;;;;4911437;28;20023;-84
2020/12/22 13:53:17;;;;;;;;;;;10.20;99.90;;;;;;4910594;28;19931;-85
2020/12/22 13:55:40;;;;;;;;;;;10.20;99.90;;;;;;4912321;28;20035;-83
2020/12/22 13:58:02;;;;;;;;;;;10.10;99.90;;;;;;4910961;28;20015;-84
2020/12/22 14:00:25;;;;;;;;;;;10.10;99.90;;;;;;4912076;28;20019;-82
2020/12/22 14:02:48;;;;;;;;;;;10.00;99.90;;;;;;4912630;28;20047;-81
2020/12/22 14:05:11;;;;;;;;;;;9.90;99.90;;;;;;4913839;28;19932;-83
2020/12/22 14:07:33;;;;;;;;;;;9.80;99.90;;;;;;4910659;28;20436;-83
2020/12/22 14:09:56;;;;;;;;;;;9.70;99.90;;;;;;4910936;28;19947;-83
2020/12/22 14:12:19;;;;;;;;;;;9.70;99.90;;;;;;4903188;28;19997;-83
2020/12/22 14:14:41;;;;;;;;;;;9.60;99.90;;;;;;4910827;28;19968;-81
2020/12/22 14:17:04;;;;;;;;;;;9.40;99.90;;;;;;4911910;28;19939;-83
2020/12/22 14:19:26;;;;;;;;;;;9.40;99.90;;;;;;4912125;28;20017;-82
2020/12/22 14:21:49;;;;;;;;;;;9.40;99.90;;;;;;4911248;28;20020;-83
2020/12/22 14:24:12;;;;;;;;;;;9.40;99.90;;;;;;4910191;28;20367;-82
2020/12/22 14:26:35;;;;;;;;;;;9.30;99.90;;;;;;4910613;28;19932;-80
2020/12/22 14:28:58;;;;;;;;;;;9.10;99.90;;;;;;4911827;28;20041;-81
2020/12/22 14:31:21;;;;;;;;;;;9.00;99.90;;;;;;4911350;28;19935;-82
2020/12/22 14:33:44;;;;;;;;;;;9.00;99.90;;;;;;4910297;28;20013;-82
2020/12/22 14:36:07;;;;;;;;;;;8.90;99.90;;;;;;4910445;28;20582;-83
2020/12/22 14:38:31;;;;;;;;;;;8.90;99.90;;;;;;4911909;28;22532;-79
2020/12/22 14:40:54;;;;;;;;;;;8.90;99.90;;;;;;4909303;28;20328;-83
2020/12/22 14:43:18;;;;;;;;;;;8.90;99.90;;;;;;4911702;28;19951;-84
2020/12/22 14:45:40;;;;;;;;;;;8.80;99.90;;;;;;4910630;28;19974;-81
2020/12/22 14:48:03;;;;;;;;;;;8.80;99.90;;;;;;4911541;28;20047;-82